createdAt,value
2019-01-31T00:00:42.958Z,99.99
2019-01-31T00:01:42.871Z,99.99
2019-01-31T00:02:42.783Z,99.99
2019-01-31T00:03:42.698Z,99.99
2019-01-31T00:04:42.609Z,99.99
2019-01-31T00:05:42.517Z,99.99
2019-01-31T00:06:42.430Z,99.99
2019-01-31T00:07:42.348Z,99.99
2019-01-31T00:08:46.116Z,99.99
2019-01-31T00:09:42.167Z,99.99
2019-01-31T00:10:42.082Z,99.99
2019-01-31T00:11:41.991Z,99.99
2019-01-31T00:12:41.908Z,99.99
2019-01-31T00:13:41.820Z,99.99
2019-01-31T00:14:41.724Z,99.99
2019-01-31T00:15:41.634Z,99.99
2019-01-31T00:16:41.546Z,99.99
2019-01-31T00:17:41.499Z,99.99
2019-01-31T00:18:41.371Z,99.99
2019-01-31T00:19:41.282Z,99.99
2019-01-31T00:20:41.193Z,99.99
2019-01-31T00:21:41.104Z,99.99
2019-01-31T00:22:41.017Z,99.99
2019-01-31T00:23:40.929Z,99.99
2019-01-31T00:24:40.839Z,99.99
2019-01-31T00:25:40.752Z,99.99
2019-01-31T00:26:40.665Z,99.99
2019-01-31T00:27:40.573Z,99.99
2019-01-31T00:28:40.492Z,99.99
2019-01-31T00:29:40.397Z,99.99
2019-01-31T00:30:40.356Z,99.99
2019-01-31T00:31:40.221Z,99.99
2019-01-31T00:32:40.136Z,99.99
2019-01-31T00:33:40.041Z,99.99
2019-01-31T00:34:39.959Z,99.99
2019-01-31T00:35:39.866Z,99.99
2019-01-31T00:36:39.775Z,99.99
2019-01-31T00:37:39.695Z,99.99
2019-01-31T00:38:39.602Z,99.99
2019-01-31T00:39:39.511Z,99.99
2019-01-31T00:40:39.430Z,99.99
2019-01-31T00:41:39.349Z,99.99
2019-01-31T00:42:39.263Z,99.99
2019-01-31T00:43:39.168Z,99.99
2019-01-31T00:44:39.071Z,99.99
2019-01-31T00:45:39.028Z,99.99
2019-01-31T00:46:38.905Z,99.99
2019-01-31T00:47:38.812Z,99.99
2019-01-31T00:48:38.720Z,99.99
2019-01-31T00:49:38.636Z,99.99
2019-01-31T00:50:38.539Z,99.99
2019-01-31T00:51:38.448Z,99.99
2019-01-31T00:52:38.360Z,99.99
2019-01-31T00:53:38.276Z,99.99
2019-01-31T00:54:38.182Z,99.99
2019-01-31T00:55:38.101Z,99.99
2019-01-31T00:56:38.007Z,99.99
2019-01-31T00:57:37.921Z,99.99
2019-01-31T00:58:37.829Z,99.99
2019-01-31T00:59:37.753Z,99.99
2019-01-31T01:00:37.653Z,99.99
2019-01-31T01:01:37.562Z,99.99
2019-01-31T01:02:37.474Z,99.99
2019-01-31T01:03:37.391Z,99.99
2019-01-31T01:04:37.297Z,99.99
2019-01-31T01:05:37.206Z,99.99
2019-01-31T01:06:37.121Z,99.99
2019-01-31T01:07:37.027Z,99.99
2019-01-31T01:08:36.937Z,99.99
2019-01-31T01:09:36.850Z,99.99
2019-01-31T01:10:36.766Z,99.99
2019-01-31T01:11:36.682Z,99.99
2019-01-31T01:12:36.591Z,99.99
2019-01-31T01:13:36.497Z,99.99
2019-01-31T01:14:36.409Z,99.99
2019-01-31T01:15:36.320Z,99.99
2019-01-31T01:16:36.226Z,99.99
2019-01-31T01:17:36.138Z,99.99
2019-01-31T01:18:36.052Z,99.99
2019-01-31T01:19:35.963Z,99.99
2019-01-31T01:20:35.869Z,99.99
2019-01-31T01:21:35.780Z,99.99
2019-01-31T01:22:35.692Z,99.99
2019-01-31T01:23:35.604Z,99.99
2019-01-31T01:24:35.518Z,99.99
2019-01-31T01:25:35.428Z,99.99
2019-01-31T01:26:35.339Z,99.99
2019-01-31T01:27:35.249Z,99.99
2019-01-31T01:28:35.159Z,99.99
2019-01-31T01:29:35.072Z,99.99
2019-01-31T01:30:34.980Z,99.99
2019-01-31T01:31:34.891Z,99.99
2019-01-31T01:32:34.801Z,99.99
2019-01-31T01:33:34.715Z,99.99
2019-01-31T01:34:34.627Z,99.99
2019-01-31T01:35:34.533Z,99.99
2019-01-31T01:36:34.449Z,99.99
2019-01-31T01:37:34.358Z,99.99
2019-01-31T01:38:34.271Z,99.99
2019-01-31T01:39:34.184Z,99.99
2019-01-31T01:40:34.088Z,99.99
2019-01-31T01:41:34.000Z,99.99
2019-01-31T01:42:33.915Z,99.99
2019-01-31T01:43:33.830Z,99.99
2019-01-31T01:44:33.731Z,99.99
2019-01-31T01:45:33.650Z,99.99
2019-01-31T01:46:33.559Z,99.99
2019-01-31T01:47:33.464Z,99.99
2019-01-31T01:48:33.381Z,99.99
2019-01-31T01:49:33.291Z,99.99
2019-01-31T01:50:33.204Z,99.99
2019-01-31T01:51:33.109Z,99.99
2019-01-31T01:52:33.018Z,99.99
2019-01-31T01:53:32.929Z,99.99
2019-01-31T01:54:32.849Z,99.99
2019-01-31T01:55:32.752Z,99.99
2019-01-31T01:56:32.669Z,99.99
2019-01-31T01:57:32.573Z,99.99
2019-01-31T01:58:32.484Z,99.99
2019-01-31T01:59:32.399Z,99.99
2019-01-31T02:00:32.318Z,99.99
2019-01-31T02:01:32.217Z,99.99
2019-01-31T02:02:32.130Z,99.99
2019-01-31T02:03:32.045Z,99.99
2019-01-31T02:04:31.960Z,99.99
2019-01-31T02:05:31.866Z,99.99
2019-01-31T02:06:31.770Z,99.99
2019-01-31T02:07:31.681Z,99.99
2019-01-31T02:08:31.592Z,99.99
2019-01-31T02:09:31.506Z,99.99
2019-01-31T02:10:31.417Z,99.99
2019-01-31T02:11:31.324Z,99.99
2019-01-31T02:12:31.234Z,99.99
2019-01-31T02:13:31.149Z,99.99
2019-01-31T02:14:31.059Z,99.99
2019-01-31T02:15:30.969Z,99.99
2019-01-31T02:16:30.883Z,99.99
2019-01-31T02:17:30.800Z,99.99
2019-01-31T02:18:30.698Z,99.99
2019-01-31T02:19:30.618Z,99.99
2019-01-31T02:20:30.529Z,99.99
2019-01-31T02:21:30.432Z,99.99
2019-01-31T02:22:30.347Z,99.99
2019-01-31T02:23:30.258Z,99.99
2019-01-31T02:24:30.164Z,99.99
2019-01-31T02:25:30.074Z,99.99
2019-01-31T02:26:29.985Z,99.99
2019-01-31T02:27:29.902Z,99.99
2019-01-31T02:28:29.811Z,99.99
2019-01-31T02:29:29.721Z,99.99
2019-01-31T02:30:29.629Z,99.99
2019-01-31T02:31:29.543Z,99.99
2019-01-31T02:32:29.449Z,99.99
2019-01-31T02:33:29.363Z,99.99
2019-01-31T02:34:29.276Z,99.99
2019-01-31T02:35:29.182Z,99.99
2019-01-31T02:36:29.092Z,99.99
2019-01-31T02:37:29.001Z,99.99
2019-01-31T02:38:28.911Z,99.99
2019-01-31T02:39:28.830Z,99.99
2019-01-31T02:40:28.737Z,99.99
2019-01-31T02:41:28.645Z,99.99
2019-01-31T02:42:28.557Z,99.99
2019-01-31T02:43:28.471Z,99.99
2019-01-31T02:44:28.396Z,99.99
2019-01-31T02:45:28.286Z,99.99
2019-01-31T02:46:28.200Z,99.99
2019-01-31T02:47:28.107Z,99.99
2019-01-31T02:48:28.020Z,99.99
2019-01-31T02:49:27.930Z,99.99
2019-01-31T02:50:27.842Z,99.99
2019-01-31T02:51:27.754Z,99.99
2019-01-31T02:52:27.662Z,99.99
2019-01-31T02:53:27.570Z,99.99
2019-01-31T02:54:27.479Z,99.99
2019-01-31T02:55:27.392Z,99.99
2019-01-31T02:56:27.302Z,99.99
2019-01-31T02:57:27.218Z,99.99
2019-01-31T02:58:27.123Z,99.99
2019-01-31T02:59:27.034Z,99.99
2019-01-31T03:00:26.948Z,99.99
2019-01-31T03:01:26.858Z,99.99
2019-01-31T03:02:26.763Z,99.99
2019-01-31T03:03:26.672Z,99.99
2019-01-31T03:04:26.588Z,99.99
2019-01-31T03:05:26.495Z,99.99
2019-01-31T03:06:26.405Z,99.99
2019-01-31T03:07:26.319Z,99.99
2019-01-31T03:08:26.226Z,99.99
2019-01-31T03:09:26.138Z,99.99
2019-01-31T03:10:26.049Z,99.99
2019-01-31T03:11:25.960Z,99.99
2019-01-31T03:12:25.868Z,99.99
2019-01-31T03:13:25.780Z,99.99
2019-01-31T03:14:25.687Z,99.99
2019-01-31T03:15:25.597Z,99.99
2019-01-31T03:16:25.511Z,99.99
2019-01-31T03:17:25.417Z,99.99
2019-01-31T03:18:25.330Z,99.99
2019-01-31T03:19:25.239Z,99.99
2019-01-31T03:20:25.154Z,99.99
2019-01-31T03:21:25.060Z,99.99
2019-01-31T03:22:24.975Z,99.99
2019-01-31T03:23:24.987Z,99.99
2019-01-31T03:24:24.812Z,99.99
2019-01-31T03:25:24.702Z,99.99
2019-01-31T03:26:24.609Z,99.99
2019-01-31T03:27:24.522Z,99.99
2019-01-31T03:28:24.426Z,99.99
2019-01-31T03:29:24.340Z,99.99
2019-01-31T03:30:25.071Z,99.99
2019-01-31T03:31:24.159Z,99.99
2019-01-31T03:32:24.074Z,99.99
2019-01-31T03:33:23.981Z,99.99
2019-01-31T03:34:23.891Z,99.99
2019-01-31T03:35:23.796Z,99.99
2019-01-31T03:36:23.709Z,99.99
2019-01-31T03:37:23.617Z,99.99
2019-01-31T03:38:23.525Z,99.99
2019-01-31T03:39:23.437Z,99.99
2019-01-31T03:40:23.350Z,99.99
2019-01-31T03:41:23.255Z,99.99
2019-01-31T03:42:23.170Z,99.99
2019-01-31T03:43:23.078Z,99.99
2019-01-31T03:44:22.982Z,99.99
2019-01-31T03:45:22.894Z,99.99
2019-01-31T03:46:22.814Z,99.99
2019-01-31T03:47:22.714Z,99.99
2019-01-31T03:48:22.626Z,99.99
2019-01-31T03:49:22.537Z,99.99
2019-01-31T03:50:22.449Z,99.99
2019-01-31T03:51:22.358Z,99.99
2019-01-31T03:52:22.270Z,99.99
2019-01-31T03:53:22.176Z,99.99
2019-01-31T03:54:22.142Z,99.99
2019-01-31T03:55:21.992Z,99.99
2019-01-31T03:56:21.903Z,99.99
2019-01-31T03:57:21.813Z,99.99
2019-01-31T03:58:21.726Z,99.99
2019-01-31T03:59:21.634Z,99.99
2019-01-31T04:00:21.541Z,99.99
2019-01-31T04:01:21.459Z,99.99
2019-01-31T04:02:21.365Z,99.99
2019-01-31T04:03:21.272Z,99.99
2019-01-31T04:04:21.189Z,99.99
2019-01-31T04:05:21.089Z,99.99
2019-01-31T04:06:21.006Z,99.99
2019-01-31T04:07:20.909Z,99.99
2019-01-31T04:08:20.825Z,99.99
2019-01-31T04:09:20.729Z,99.99
2019-01-31T04:10:20.642Z,99.99
2019-01-31T04:11:20.549Z,99.99
2019-01-31T04:12:20.457Z,99.99
2019-01-31T04:13:20.369Z,99.99
2019-01-31T04:14:20.277Z,99.99
2019-01-31T04:15:20.194Z,99.99
2019-01-31T04:16:20.152Z,99.99
2019-01-31T04:17:20.005Z,99.99
2019-01-31T04:18:19.933Z,99.99
2019-01-31T04:19:19.829Z,99.99
2019-01-31T04:20:19.747Z,99.99
2019-01-31T04:21:19.651Z,99.99
2019-01-31T04:22:19.561Z,99.99
2019-01-31T04:23:19.481Z,99.99
2019-01-31T04:24:19.383Z,99.99
2019-01-31T04:25:19.286Z,99.99
2019-01-31T04:26:19.192Z,99.99
2019-01-31T04:27:19.114Z,99.99
2019-01-31T04:28:19.010Z,99.99
2019-01-31T04:29:18.928Z,99.99
2019-01-31T04:30:18.835Z,99.99
2019-01-31T04:31:18.738Z,99.99
2019-01-31T04:32:18.647Z,99.99
2019-01-31T04:33:18.559Z,99.99
2019-01-31T04:34:18.473Z,99.99
2019-01-31T04:35:18.379Z,99.99
2019-01-31T04:36:18.288Z,99.99
2019-01-31T04:37:18.274Z,99.99
2019-01-31T04:38:19.865Z,99.99
2019-01-31T04:39:18.015Z,99.99
2019-01-31T04:40:17.938Z,99.99
2019-01-31T04:41:17.836Z,99.99
2019-01-31T04:42:17.748Z,99.99
2019-01-31T04:43:17.657Z,99.99
2019-01-31T04:44:17.564Z,99.99
2019-01-31T04:45:17.472Z,99.99
2019-01-31T04:46:17.389Z,99.99
2019-01-31T04:47:17.297Z,99.99
2019-01-31T04:48:17.208Z,99.99
2019-01-31T04:49:17.111Z,99.99
2019-01-31T04:50:17.026Z,99.99
2019-01-31T04:51:16.930Z,99.99
2019-01-31T04:52:16.840Z,99.99
2019-01-31T04:53:16.752Z,99.99
2019-01-31T04:54:16.662Z,99.99
2019-01-31T04:55:16.567Z,99.99
2019-01-31T04:56:16.477Z,99.99
2019-01-31T04:57:16.388Z,99.99
2019-01-31T04:58:16.298Z,99.99
2019-01-31T04:59:17.516Z,99.99
2019-01-31T05:00:16.117Z,99.99
2019-01-31T05:01:16.025Z,99.99
2019-01-31T05:02:15.938Z,99.99
2019-01-31T05:03:15.845Z,99.99
2019-01-31T05:04:15.755Z,99.99
2019-01-31T05:05:15.668Z,99.99
2019-01-31T05:06:15.576Z,99.99
2019-01-31T05:07:15.488Z,99.99
2019-01-31T05:08:15.399Z,99.99
2019-01-31T05:09:15.306Z,99.99
2019-01-31T05:10:15.220Z,99.99
2019-01-31T05:11:15.126Z,99.99
2019-01-31T05:12:15.029Z,99.99
2019-01-31T05:13:14.943Z,99.99
2019-01-31T05:14:14.849Z,99.99
2019-01-31T05:15:14.766Z,99.99
2019-01-31T05:16:14.667Z,99.99
2019-01-31T05:17:14.577Z,99.99
2019-01-31T05:18:14.486Z,99.99
2019-01-31T05:19:14.394Z,99.99
2019-01-31T05:20:14.304Z,99.99
2019-01-31T05:21:14.215Z,99.99
2019-01-31T05:22:14.123Z,99.99
2019-01-31T05:23:14.037Z,99.99
2019-01-31T05:24:13.943Z,99.99
2019-01-31T05:25:13.855Z,99.99
2019-01-31T05:26:13.768Z,99.99
2019-01-31T05:27:13.678Z,99.99
2019-01-31T05:28:13.581Z,99.99
2019-01-31T05:29:13.494Z,99.99
2019-01-31T05:30:13.400Z,99.99
2019-01-31T05:31:13.311Z,99.99
2019-01-31T05:32:13.219Z,99.99
2019-01-31T05:33:13.132Z,99.99
2019-01-31T05:34:13.039Z,99.99
2019-01-31T05:35:12.949Z,99.99
2019-01-31T05:36:12.858Z,99.99
2019-01-31T05:37:12.769Z,99.99
2019-01-31T05:38:12.680Z,99.99
2019-01-31T05:39:12.588Z,99.99
2019-01-31T05:40:12.499Z,99.99
2019-01-31T05:41:12.405Z,99.99
2019-01-31T05:42:12.317Z,99.99
2019-01-31T05:43:12.225Z,99.99
2019-01-31T05:44:12.137Z,99.99
2019-01-31T05:45:12.079Z,99.99
2019-01-31T05:46:11.964Z,99.99
2019-01-31T05:47:11.863Z,99.99
2019-01-31T05:48:11.773Z,99.99
2019-01-31T05:49:11.684Z,99.99
2019-01-31T05:50:11.598Z,99.99
2019-01-31T05:51:11.537Z,99.99
2019-01-31T05:52:11.413Z,99.99
2019-01-31T05:53:11.323Z,99.99
2019-01-31T05:54:11.234Z,99.99
2019-01-31T05:55:11.147Z,99.99
2019-01-31T05:56:11.055Z,99.99
2019-01-31T05:57:10.961Z,99.99
2019-01-31T05:58:10.875Z,99.99
2019-01-31T05:59:10.785Z,99.99
2019-01-31T06:00:10.713Z,99.99
2019-01-31T06:01:10.606Z,99.99
2019-01-31T06:02:10.513Z,99.99
2019-01-31T06:03:10.423Z,99.99
2019-01-31T06:04:10.331Z,99.99
2019-01-31T06:05:10.239Z,99.99
2019-01-31T06:06:10.158Z,99.99
2019-01-31T06:07:11.159Z,99.99
2019-01-31T06:08:09.973Z,99.99
2019-01-31T06:09:09.907Z,99.99
2019-01-31T06:10:09.802Z,99.99
2019-01-31T06:11:09.702Z,99.99
2019-01-31T06:12:09.611Z,99.99
2019-01-31T06:13:09.516Z,99.99
2019-01-31T06:14:09.426Z,99.99
2019-01-31T06:15:09.346Z,99.99
2019-01-31T06:16:09.344Z,99.99
2019-01-31T06:17:09.156Z,99.99
2019-01-31T06:18:09.068Z,99.99
2019-01-31T06:19:08.987Z,99.99
2019-01-31T06:20:08.892Z,99.99
2019-01-31T06:21:08.795Z,99.99
2019-01-31T06:22:08.705Z,99.99
2019-01-31T06:23:08.620Z,99.99
2019-01-31T06:24:08.532Z,99.99
2019-01-31T06:25:08.446Z,99.99
2019-01-31T06:26:08.344Z,99.99
2019-01-31T06:27:08.255Z,99.99
2019-01-31T06:28:08.163Z,99.99
2019-01-31T06:29:08.079Z,99.99
2019-01-31T06:30:07.989Z,99.99
2019-01-31T06:31:07.894Z,99.99
2019-01-31T06:32:07.803Z,99.99
2019-01-31T06:33:07.711Z,99.99
2019-01-31T06:34:07.623Z,99.99
2019-01-31T06:35:07.537Z,99.99
2019-01-31T06:36:07.441Z,99.99
2019-01-31T06:37:07.353Z,99.99
2019-01-31T06:38:07.261Z,99.99
2019-01-31T06:39:07.167Z,99.99
2019-01-31T06:40:07.077Z,99.99
2019-01-31T06:41:17.996Z,99.99
2019-01-31T06:42:06.895Z,99.99
2019-01-31T06:43:06.812Z,99.99
2019-01-31T06:44:06.718Z,99.99
2019-01-31T06:45:06.623Z,99.99
2019-01-31T06:46:06.535Z,99.99
2019-01-31T06:47:06.440Z,99.99
2019-01-31T06:48:06.348Z,99.99
2019-01-31T06:49:06.270Z,99.99
2019-01-31T06:50:06.172Z,99.99
2019-01-31T06:51:06.077Z,99.99
2019-01-31T06:52:05.984Z,99.99
2019-01-31T06:53:05.894Z,99.99
2019-01-31T06:54:07.756Z,99.99
2019-01-31T06:55:05.718Z,99.99
2019-01-31T06:56:05.626Z,99.99
2019-01-31T06:57:05.532Z,99.99
2019-01-31T06:58:05.444Z,99.99
2019-01-31T06:59:05.348Z,99.99
2019-01-31T07:00:05.256Z,99.99
2019-01-31T07:01:05.167Z,99.99
2019-01-31T07:02:05.074Z,99.99
2019-01-31T07:03:04.981Z,99.99
2019-01-31T07:04:04.892Z,99.99
2019-01-31T07:05:04.801Z,99.99
2019-01-31T07:06:04.832Z,99.99
2019-01-31T07:07:04.659Z,99.99
2019-01-31T07:08:04.929Z,99.99
2019-01-31T07:09:04.442Z,99.99
2019-01-31T07:10:04.347Z,99.99
2019-01-31T07:11:04.258Z,99.99
2019-01-31T07:12:04.163Z,99.99
2019-01-31T07:13:04.071Z,99.99
2019-01-31T07:14:03.985Z,99.99
2019-01-31T07:15:03.893Z,99.99
2019-01-31T07:16:03.816Z,99.99
2019-01-31T07:17:03.712Z,99.99
2019-01-31T07:18:03.618Z,99.99
2019-01-31T07:19:03.529Z,99.99
2019-01-31T07:20:03.441Z,99.99
2019-01-31T07:21:03.347Z,99.99
2019-01-31T07:22:03.252Z,99.99
2019-01-31T07:23:03.164Z,99.99
2019-01-31T07:24:03.076Z,99.99
2019-01-31T07:25:02.977Z,99.99
2019-01-31T07:26:02.887Z,99.99
2019-01-31T07:27:02.804Z,99.99
2019-01-31T07:28:02.704Z,99.99
2019-01-31T07:29:02.613Z,99.99
2019-01-31T07:30:02.534Z,99.99
2019-01-31T07:31:02.431Z,99.99
2019-01-31T07:32:03.740Z,99.99
2019-01-31T07:33:02.250Z,99.99
2019-01-31T07:34:02.171Z,99.99
2019-01-31T07:35:02.076Z,99.99
2019-01-31T07:36:01.974Z,99.99
2019-01-31T07:37:01.886Z,99.99
2019-01-31T07:38:01.810Z,99.99
2019-01-31T07:39:01.708Z,99.99
2019-01-31T07:40:01.625Z,99.99
2019-01-31T07:41:01.520Z,99.99
2019-01-31T07:42:01.431Z,99.99
2019-01-31T07:43:01.343Z,99.99
2019-01-31T07:44:01.250Z,99.99
2019-01-31T07:45:01.159Z,99.99
2019-01-31T07:46:01.066Z,99.99
2019-01-31T07:47:00.980Z,99.99
2019-01-31T07:48:00.889Z,99.99
2019-01-31T07:49:00.796Z,99.99
2019-01-31T07:50:00.711Z,99.99
2019-01-31T07:51:00.615Z,99.99
2019-01-31T07:52:00.518Z,99.99
2019-01-31T07:53:00.431Z,99.99
2019-01-31T07:54:00.345Z,99.99
2019-01-31T07:55:01.983Z,99.99
2019-01-31T07:56:00.160Z,99.99
2019-01-31T07:57:00.066Z,99.99
2019-01-31T07:57:59.983Z,99.99
2019-01-31T07:58:59.890Z,99.99
2019-01-31T07:59:59.797Z,99.99
2019-01-31T08:00:59.703Z,99.99
2019-01-31T08:01:59.612Z,99.99
2019-01-31T08:02:59.526Z,99.99
2019-01-31T08:04:02.622Z,99.99
2019-01-31T08:04:59.342Z,99.99
2019-01-31T08:05:59.371Z,99.99
2019-01-31T08:06:59.165Z,99.99
2019-01-31T08:07:59.067Z,99.99
2019-01-31T08:08:58.977Z,99.99
2019-01-31T08:09:58.890Z,99.99
2019-01-31T08:10:58.800Z,99.99
2019-01-31T08:11:58.705Z,99.99
2019-01-31T08:12:58.614Z,99.99
2019-01-31T08:13:58.526Z,99.99
2019-01-31T08:14:58.436Z,99.99
2019-01-31T08:15:58.349Z,99.99
2019-01-31T08:16:58.252Z,99.99
2019-01-31T08:17:58.171Z,99.99
2019-01-31T08:18:58.073Z,99.99
2019-01-31T08:19:57.982Z,99.99
2019-01-31T08:20:57.892Z,99.99
2019-01-31T08:21:57.802Z,99.99
2019-01-31T08:23:00.084Z,99.99
2019-01-31T08:23:57.621Z,99.99
2019-01-31T08:24:57.559Z,99.99
2019-01-31T08:25:57.526Z,99.99
2019-01-31T08:26:57.413Z,99.99
2019-01-31T08:27:57.265Z,99.99
2019-01-31T08:28:57.172Z,99.99
2019-01-31T08:29:57.090Z,99.99
2019-01-31T08:30:57.046Z,99.99
2019-01-31T08:31:56.904Z,99.99
2019-01-31T08:32:56.855Z,99.99
2019-01-31T08:33:56.721Z,99.99
2019-01-31T08:34:56.631Z,99.99
2019-01-31T08:35:56.545Z,99.99
2019-01-31T08:36:56.451Z,99.99
2019-01-31T08:37:56.361Z,99.99
2019-01-31T08:38:56.273Z,99.99
2019-01-31T08:39:56.248Z,99.99
2019-01-31T08:40:56.127Z,99.99
2019-01-31T08:42:03.525Z,99.99
2019-01-31T08:42:55.921Z,99.99
2019-01-31T08:43:55.821Z,99.99
2019-01-31T08:44:55.729Z,99.99
2019-01-31T08:45:55.642Z,99.99
2019-01-31T08:46:55.556Z,99.99
2019-01-31T08:47:55.466Z,99.99
2019-01-31T08:48:55.374Z,99.99
2019-01-31T08:49:55.288Z,99.99
2019-01-31T08:50:55.240Z,99.99
2019-01-31T08:51:55.130Z,99.99
2019-01-31T08:52:55.062Z,99.99
2019-01-31T08:53:54.925Z,99.99
2019-01-31T08:54:54.839Z,99.99
2019-01-31T08:55:54.794Z,99.99
2019-01-31T08:56:54.654Z,99.99
2019-01-31T08:57:54.576Z,99.99
2019-01-31T08:58:54.484Z,99.99
2019-01-31T08:59:54.385Z,99.99
2019-01-31T09:00:54.296Z,99.99
2019-01-31T09:01:54.272Z,99.99
2019-01-31T09:02:54.123Z,99.99
2019-01-31T09:03:54.028Z,99.99
2019-01-31T09:04:53.939Z,99.99
2019-01-31T09:05:53.858Z,99.99
2019-01-31T09:06:53.767Z,99.99
2019-01-31T09:07:53.673Z,99.99
2019-01-31T09:08:53.583Z,99.99
2019-01-31T09:09:53.497Z,99.99
2019-01-31T09:10:53.404Z,99.99
2019-01-31T09:11:53.418Z,99.99
2019-01-31T09:12:53.298Z,99.99
2019-01-31T09:13:53.203Z,99.99
2019-01-31T09:14:53.095Z,99.99
2019-01-31T09:15:53.022Z,99.99
2019-01-31T09:16:52.953Z,99.99
2019-01-31T09:17:52.851Z,99.99
2019-01-31T09:18:52.703Z,99.99
2019-01-31T09:19:52.675Z,99.99
2019-01-31T09:20:52.562Z,99.99
2019-01-31T09:21:52.496Z,99.99
2019-01-31T09:22:52.346Z,99.99
2019-01-31T09:23:52.308Z,99.99
2019-01-31T09:24:52.216Z,99.99
2019-01-31T09:25:52.147Z,99.99
2019-01-31T09:26:52.023Z,99.99
2019-01-31T09:27:51.979Z,99.99
2019-01-31T09:28:51.894Z,99.99
2019-01-31T09:29:54.190Z,99.99
2019-01-31T09:30:51.699Z,99.99
2019-01-31T09:31:51.608Z,99.99
2019-01-31T09:32:51.520Z,99.99
2019-01-31T09:33:51.447Z,99.99
2019-01-31T09:34:51.352Z,99.99
2019-01-31T09:35:51.252Z,99.99
2019-01-31T09:36:51.178Z,99.99
2019-01-31T09:37:51.051Z,99.99
2019-01-31T09:38:50.991Z,99.99
2019-01-31T09:39:50.887Z,99.99
2019-01-31T09:40:50.809Z,99.99
2019-01-31T09:41:50.735Z,99.99
2019-01-31T09:42:50.619Z,99.99
2019-01-31T09:43:50.528Z,99.99
2019-01-31T09:44:50.462Z,99.99
2019-01-31T09:45:50.393Z,99.99
2019-01-31T09:46:50.283Z,99.99
2019-01-31T09:47:50.214Z,99.99
2019-01-31T09:48:50.091Z,99.99
2019-01-31T09:49:50.013Z,99.99
2019-01-31T09:50:49.915Z,99.99
2019-01-31T09:51:49.807Z,99.99
2019-01-31T09:52:49.753Z,99.99
2019-01-31T09:53:49.634Z,99.99
2019-01-31T09:54:49.576Z,99.99
2019-01-31T09:55:49.487Z,99.99
2019-01-31T09:56:49.414Z,99.99
2019-01-31T09:57:49.326Z,99.99
2019-01-31T09:58:49.195Z,99.99
2019-01-31T09:59:49.157Z,99.99
2019-01-31T10:00:49.063Z,99.99
2019-01-31T10:01:48.947Z,99.99
2019-01-31T10:02:48.873Z,99.99
2019-01-31T10:03:48.729Z,99.99
2019-01-31T10:04:48.708Z,99.99
2019-01-31T10:05:48.613Z,99.99
2019-01-31T10:06:48.501Z,99.99
2019-01-31T10:07:48.413Z,99.99
2019-01-31T10:08:48.366Z,99.99
2019-01-31T10:09:48.259Z,99.99
2019-01-31T10:10:48.205Z,99.99
2019-01-31T10:11:48.098Z,99.99
2019-01-31T10:12:48.086Z,99.99
2019-01-31T10:13:47.952Z,99.99
2019-01-31T10:14:47.867Z,99.99
2019-01-31T10:15:47.742Z,99.99
2019-01-31T10:16:47.720Z,99.99
2019-01-31T10:17:47.560Z,99.99
2019-01-31T10:18:47.534Z,99.99
2019-01-31T10:19:47.555Z,99.99
2019-01-31T10:20:47.320Z,99.99
2019-01-31T10:21:47.216Z,99.99
2019-01-31T10:22:47.150Z,99.99
2019-01-31T10:23:47.041Z,99.99
2019-01-31T10:24:46.939Z,99.99
2019-01-31T10:25:46.837Z,99.99
2019-01-31T10:26:46.745Z,99.99
2019-01-31T10:27:46.679Z,99.99
2019-01-31T10:28:46.612Z,99.99
2019-01-31T10:29:46.516Z,99.99
2019-01-31T10:30:46.420Z,99.99
2019-01-31T10:31:46.344Z,99.99
2019-01-31T10:32:46.246Z,99.99
2019-01-31T10:33:46.164Z,99.99
2019-01-31T10:34:46.084Z,99.99
2019-01-31T10:35:46.000Z,99.99
2019-01-31T10:36:45.907Z,99.99
2019-01-31T10:37:45.800Z,99.99
2019-01-31T10:38:45.725Z,99.99
2019-01-31T10:39:45.641Z,99.99
2019-01-31T10:40:45.559Z,99.99
2019-01-31T10:41:45.472Z,99.99
2019-01-31T10:42:50.561Z,99.99
2019-01-31T10:43:45.292Z,99.99
2019-01-31T10:44:45.186Z,99.99
2019-01-31T10:45:45.098Z,99.99
2019-01-31T10:46:44.991Z,99.99
2019-01-31T10:47:44.967Z,99.99
2019-01-31T10:48:44.866Z,99.99
2019-01-31T10:49:44.769Z,99.99
2019-01-31T10:50:44.713Z,99.99
2019-01-31T10:51:44.597Z,99.99
2019-01-31T10:52:44.511Z,99.99
2019-01-31T10:53:44.444Z,99.15
2019-01-31T10:54:44.343Z,99.63
2019-01-31T10:55:44.265Z,98.35
2019-01-31T10:56:44.513Z,97.88
2019-01-31T10:57:44.104Z,95.41
2019-01-31T10:58:43.986Z,91.33
2019-01-31T10:59:43.897Z,89.43
2019-01-31T11:00:43.773Z,90.67
2019-01-31T11:01:43.750Z,92.57
2019-01-31T11:02:43.684Z,92.42
2019-01-31T11:03:43.588Z,93.65
2019-01-31T11:04:43.501Z,94.79
2019-01-31T11:05:43.467Z,95.65
2019-01-31T11:06:43.331Z,94.89
2019-01-31T11:07:43.250Z,95.26
2019-01-31T11:08:43.141Z,94.79
2019-01-31T11:09:43.072Z,93.13
2019-01-31T11:10:43.003Z,92.18
2019-01-31T11:11:42.922Z,89.48
2019-01-31T11:12:42.828Z,86.63
2019-01-31T11:13:42.743Z,83.97
2019-01-31T11:14:42.674Z,81.98
2019-01-31T11:15:42.546Z,83.55
2019-01-31T11:16:42.505Z,84.88
2019-01-31T11:17:42.408Z,87.35
2019-01-31T11:18:42.318Z,87.06
2019-01-31T11:19:42.244Z,86.30
2019-01-31T11:20:42.163Z,86.97
2019-01-31T11:21:42.053Z,88.48
2019-01-31T11:22:41.975Z,90.10
2019-01-31T11:23:41.909Z,91.05
2019-01-31T11:24:41.804Z,90.19
2019-01-31T11:25:41.752Z,88.39
2019-01-31T11:26:41.648Z,86.91
2019-01-31T11:27:41.595Z,85.30
2019-01-31T11:28:41.482Z,86.68
2019-01-31T11:29:41.431Z,86.02
2019-01-31T11:30:41.327Z,85.36
2019-01-31T11:31:41.246Z,84.78
2019-01-31T11:32:41.179Z,85.45
2019-01-31T11:33:41.059Z,87.16
2019-01-31T11:34:40.988Z,88.10
2019-01-31T11:35:40.890Z,86.16
2019-01-31T11:36:40.810Z,85.68
2019-01-31T11:37:40.755Z,83.78
2019-01-31T11:38:40.690Z,83.88
2019-01-31T11:39:40.608Z,83.31
2019-01-31T11:40:40.591Z,82.79
2019-01-31T11:41:40.392Z,85.07
2019-01-31T11:42:40.294Z,88.01
2019-01-31T11:43:40.213Z,89.43
2019-01-31T11:44:40.134Z,90.29
2019-01-31T11:45:40.050Z,90.76
2019-01-31T11:46:39.970Z,91.80
2019-01-31T11:47:39.885Z,92.66
2019-01-31T11:48:39.804Z,92.94
2019-01-31T11:49:39.727Z,92.66
2019-01-31T11:50:39.646Z,92.76
2019-01-31T11:51:39.564Z,90.19
2019-01-31T11:52:39.481Z,91.99
2019-01-31T11:53:39.398Z,92.47
2019-01-31T11:54:39.312Z,92.76
2019-01-31T11:55:39.349Z,89.91
2019-01-31T11:56:39.155Z,87.92
2019-01-31T11:57:39.121Z,84.22
2019-01-31T11:58:38.986Z,82.23
2019-01-31T11:59:38.902Z,82.08
2019-01-31T12:00:38.819Z,80.65
2019-01-31T12:01:38.735Z,79.04
2019-01-31T12:02:38.654Z,78.38
2019-01-31T12:03:38.570Z,75.81
2019-01-31T12:04:38.492Z,75.91
2019-01-31T12:05:38.408Z,75.91
2019-01-31T12:06:38.433Z,75.57
2019-01-31T12:07:38.246Z,75.47
2019-01-31T12:08:38.161Z,75.95
2019-01-31T12:09:38.078Z,74.62
2019-01-31T12:10:38.003Z,74.05
2019-01-31T12:11:37.914Z,72.91
2019-01-31T12:12:37.894Z,73.00
2019-01-31T12:13:37.751Z,71.96
2019-01-31T12:14:37.750Z,71.67
2019-01-31T12:15:37.609Z,71.86
2019-01-31T12:16:37.516Z,72.15
2019-01-31T12:17:37.431Z,71.86
2019-01-31T12:18:37.371Z,71.67
2019-01-31T12:19:37.270Z,71.58
2019-01-31T12:20:37.185Z,71.67
2019-01-31T12:21:37.129Z,72.09
2019-01-31T12:22:37.027Z,72.00
2019-01-31T12:23:36.944Z,70.95
2019-01-31T12:24:36.866Z,69.53
2019-01-31T12:25:36.786Z,69.81
2019-01-31T12:26:36.709Z,69.71
2019-01-31T12:27:36.631Z,69.91
2019-01-31T12:28:36.552Z,69.71
2019-01-31T12:29:36.472Z,69.15
2019-01-31T12:30:36.399Z,69.62
2019-01-31T12:31:36.319Z,69.34
2019-01-31T12:32:36.239Z,69.43
2019-01-31T12:33:36.161Z,69.71
2019-01-31T12:34:36.088Z,69.34
2019-01-31T12:35:36.003Z,68.48
2019-01-31T12:36:35.927Z,68.10
2019-01-31T12:37:35.849Z,67.82
2019-01-31T12:38:37.064Z,66.96
2019-01-31T12:39:35.691Z,66.49
2019-01-31T12:40:35.614Z,66.20
2019-01-31T12:41:35.536Z,66.49
2019-01-31T12:42:35.456Z,66.52
2019-01-31T12:43:35.624Z,66.80
2019-01-31T12:44:35.299Z,67.57
2019-01-31T12:45:35.223Z,67.09
2019-01-31T12:46:35.148Z,66.33
2019-01-31T12:47:35.067Z,65.38
2019-01-31T12:48:34.983Z,65.38
2019-01-31T12:49:34.907Z,65.76
2019-01-31T12:50:34.827Z,66.24
2019-01-31T12:51:34.752Z,65.28